createdAt,value
2023-12-03T00:02:17.327Z,27.13
2023-12-03T00:04:48.561Z,28.00
2023-12-03T00:07:19.402Z,29.43
2023-12-03T00:09:49.021Z,28.97
2023-12-03T00:12:18.388Z,25.50
2023-12-03T00:14:47.609Z,24.83
2023-12-03T00:17:17.068Z,24.90
2023-12-03T00:19:46.257Z,26.00
2023-12-03T00:22:15.474Z,24.50
2023-12-03T00:24:46.071Z,25.60
2023-12-03T00:27:15.572Z,21.77
2023-12-03T00:29:44.896Z,23.30
2023-12-03T00:32:14.086Z,23.80
2023-12-03T00:34:43.174Z,25.63
2023-12-03T00:37:13.122Z,25.90
2023-12-03T00:39:42.225Z,26.17
2023-12-03T00:42:12.639Z,22.13
2023-12-03T00:44:41.689Z,25.73
2023-12-03T00:47:11.116Z,23.40
2023-12-03T00:49:42.147Z,25.27
2023-12-03T00:52:12.988Z,24.47
2023-12-03T00:54:42.478Z,22.43
2023-12-03T00:57:13.015Z,25.97
2023-12-03T00:59:42.153Z,22.53
2023-12-03T01:02:11.366Z,22.23
2023-12-03T01:04:40.560Z,22.30
2023-12-03T01:07:10.722Z,24.10
2023-12-03T01:09:40.087Z,22.63
2023-12-03T01:12:09.586Z,21.83
2023-12-03T01:14:40.744Z,23.50
2023-12-03T01:17:10.093Z,20.97
2023-12-03T01:19:39.506Z,20.10
2023-12-03T01:22:08.850Z,21.80
2023-12-03T01:24:38.006Z,22.47
2023-12-03T01:27:07.820Z,21.97
2023-12-03T01:29:37.107Z,25.03
2023-12-03T01:32:08.673Z,20.00
2023-12-03T01:34:38.088Z,18.17
2023-12-03T01:37:07.660Z,22.67
2023-12-03T01:39:36.791Z,20.57
2023-12-03T01:42:06.400Z,22.73
2023-12-03T01:44:35.802Z,20.83
2023-12-03T01:47:07.571Z,23.93
2023-12-03T01:49:37.050Z,19.73
2023-12-03T01:52:06.610Z,17.97
2023-12-03T01:54:37.637Z,22.33
2023-12-03T01:57:06.805Z,18.20
2023-12-03T01:59:36.290Z,20.40
2023-12-03T02:02:07.277Z,19.70
2023-12-03T02:04:36.339Z,24.10
2023-12-03T02:07:06.122Z,19.83
2023-12-03T02:09:35.587Z,18.90
2023-12-03T02:12:05.127Z,21.33
2023-12-03T02:14:34.732Z,19.20
2023-12-03T02:17:03.909Z,19.87
2023-12-03T02:19:34.427Z,20.27
2023-12-03T02:22:03.781Z,19.43
2023-12-03T02:24:35.893Z,19.57
2023-12-03T02:27:06.023Z,20.53
2023-12-03T02:29:35.133Z,18.97
2023-12-03T02:32:04.323Z,17.97
2023-12-03T02:34:33.505Z,19.27
2023-12-03T02:37:02.533Z,19.10
2023-12-03T02:39:31.661Z,19.37
2023-12-03T02:42:02.192Z,18.10
2023-12-03T02:44:31.351Z,16.40
2023-12-03T02:47:00.479Z,15.00
2023-12-03T02:49:29.586Z,14.80
2023-12-03T02:51:58.826Z,17.20
2023-12-03T02:54:27.854Z,17.57
2023-12-03T02:56:57.522Z,16.83
2023-12-03T02:59:28.493Z,18.07
2023-12-03T03:01:58.415Z,16.20
2023-12-03T03:04:27.555Z,17.77
2023-12-03T03:06:56.776Z,18.37
2023-12-03T03:09:25.878Z,20.23
2023-12-03T03:11:58.631Z,18.27
2023-12-03T03:14:29.079Z,17.27
2023-12-03T03:16:58.609Z,17.07
2023-12-03T03:19:27.773Z,20.60
2023-12-03T03:21:56.799Z,14.60
2023-12-03T03:24:25.962Z,17.60
2023-12-03T03:26:55.090Z,17.73
2023-12-03T03:29:24.082Z,16.10
2023-12-03T03:31:54.789Z,16.23
2023-12-03T03:34:24.436Z,16.93
2023-12-03T03:36:53.643Z,15.93
2023-12-03T03:39:22.614Z,18.53
2023-12-03T03:41:51.616Z,17.87
2023-12-03T03:44:20.946Z,17.07
2023-12-03T03:46:49.977Z,17.50
2023-12-03T03:49:20.811Z,17.57
2023-12-03T03:51:49.905Z,17.63
2023-12-03T03:54:19.365Z,17.07
2023-12-03T03:56:49.207Z,16.57
2023-12-03T03:59:18.333Z,19.93
2023-12-03T04:01:48.185Z,20.07
2023-12-03T04:04:18.403Z,18.70
2023-12-03T04:06:49.162Z,20.50
2023-12-03T04:09:18.462Z,17.73
2023-12-03T04:11:49.281Z,18.10
2023-12-03T04:14:20.016Z,19.63
2023-12-03T04:16:49.487Z,19.10
2023-12-03T04:19:18.657Z,19.27
2023-12-03T04:21:50.650Z,21.00
2023-12-03T04:24:19.707Z,17.60
2023-12-03T04:26:48.964Z,21.70
2023-12-03T04:29:17.989Z,19.57
2023-12-03T04:31:47.920Z,22.00
2023-12-03T04:34:17.449Z,19.83
2023-12-03T04:36:47.355Z,18.87
2023-12-03T04:39:18.571Z,18.93
2023-12-03T04:41:47.705Z,20.50
2023-12-03T04:44:16.799Z,20.20
2023-12-03T04:46:46.953Z,23.30
2023-12-03T04:49:16.302Z,23.20
2023-12-03T04:51:45.396Z,20.23
2023-12-03T04:54:14.642Z,21.77
2023-12-03T04:56:45.286Z,24.67
2023-12-03T04:59:14.659Z,22.57
2023-12-03T05:01:44.127Z,23.27
2023-12-03T05:04:13.417Z,24.60
2023-12-03T05:06:43.286Z,28.60
2023-12-03T05:09:13.218Z,22.40
2023-12-03T05:11:42.720Z,21.67
2023-12-03T05:14:13.359Z,26.00
2023-12-03T05:16:42.481Z,23.37
2023-12-03T05:19:11.699Z,25.83
2023-12-03T05:21:41.468Z,26.40
2023-12-03T05:24:11.216Z,24.97
2023-12-03T05:26:41.029Z,22.77
2023-12-03T05:29:10.343Z,24.30
2023-12-03T05:31:46.945Z,25.77
2023-12-03T05:34:16.906Z,27.77
2023-12-03T05:36:46.044Z,32.33
2023-12-03T05:39:15.407Z,30.90
2023-12-03T05:41:44.491Z,25.43
2023-12-03T05:44:13.488Z,27.00
2023-12-03T05:46:45.361Z,28.27
2023-12-03T05:49:14.585Z,25.33
2023-12-03T05:51:46.194Z,24.43
2023-12-03T05:54:15.552Z,23.17
2023-12-03T05:56:47.571Z,25.97
2023-12-03T05:59:18.295Z,23.33
2023-12-03T06:01:48.914Z,31.33
2023-12-03T06:04:18.226Z,24.70
2023-12-03T06:06:47.662Z,26.43
2023-12-03T06:09:17.043Z,25.87
2023-12-03T06:11:46.283Z,28.50
2023-12-03T06:14:15.319Z,25.17
2023-12-03T06:16:44.432Z,26.73
2023-12-03T06:19:15.768Z,25.03
2023-12-03T06:21:44.984Z,26.20
2023-12-03T06:24:14.065Z,28.17
2023-12-03T06:26:43.276Z,30.50
2023-12-03T06:29:12.565Z,28.93
2023-12-03T06:31:42.144Z,29.67
2023-12-03T06:34:12.520Z,29.23
2023-12-03T06:36:43.088Z,28.20
2023-12-03T06:39:12.189Z,28.47
2023-12-03T06:41:42.400Z,24.13
2023-12-03T06:44:11.412Z,30.70
2023-12-03T06:46:43.633Z,29.30
2023-12-03T06:49:13.243Z,29.77
2023-12-03T06:51:43.742Z,29.70
2023-12-03T06:54:13.495Z,31.90
2023-12-03T06:56:42.575Z,28.87
2023-12-03T06:59:11.563Z,33.17
2023-12-03T07:01:40.703Z,35.57
2023-12-03T07:04:10.147Z,30.83
2023-12-03T07:06:39.229Z,28.37
2023-12-03T07:09:36.602Z,30.80
2023-12-03T07:12:02.329Z,28.13
2023-12-03T07:14:31.614Z,32.23
2023-12-03T07:17:00.741Z,31.23
2023-12-03T07:19:29.819Z,28.20
2023-12-03T07:21:58.935Z,31.03
2023-12-03T07:24:29.422Z,27.53
2023-12-03T07:26:58.383Z,27.70
2023-12-03T07:29:27.348Z,33.47
2023-12-03T07:31:56.311Z,27.83
2023-12-03T07:34:27.417Z,29.03
2023-12-03T07:36:56.993Z,31.63
2023-12-03T07:39:27.022Z,27.30
2023-12-03T07:41:57.724Z,27.03
2023-12-03T07:44:26.726Z,28.63
2023-12-03T07:46:56.383Z,28.63
2023-12-03T07:49:25.751Z,27.57
2023-12-03T07:51:55.201Z,26.03
2023-12-03T07:54:24.490Z,25.37
2023-12-03T07:56:53.693Z,25.70
2023-12-03T07:59:24.367Z,26.00
2023-12-03T08:01:53.952Z,26.27
2023-12-03T08:04:22.999Z,26.47
2023-12-03T08:06:52.510Z,28.97
2023-12-03T08:09:21.900Z,28.37
2023-12-03T08:11:51.283Z,26.83
2023-12-03T08:14:20.486Z,30.93
2023-12-03T08:16:51.132Z,28.63
2023-12-03T08:19:20.474Z,30.03
2023-12-03T08:21:49.883Z,32.20
2023-12-03T08:24:19.150Z,31.97
2023-12-03T08:26:48.410Z,33.20
2023-12-03T08:29:17.773Z,30.13
2023-12-03T08:31:47.187Z,31.23
2023-12-03T08:34:19.175Z,29.40
2023-12-03T08:36:48.595Z,32.67
2023-12-03T08:39:17.944Z,35.30
2023-12-03T08:41:47.281Z,32.70
2023-12-03T08:44:16.504Z,32.43
2023-12-03T08:46:45.992Z,31.40
2023-12-03T08:49:17.499Z,32.53
2023-12-03T08:51:46.826Z,32.57
2023-12-03T08:54:15.138Z,34.10
2023-12-03T08:56:48.437Z,31.13
2023-12-03T08:59:18.446Z,36.23
2023-12-03T09:01:47.881Z,30.83
2023-12-03T09:04:18.505Z,34.63
2023-12-03T09:06:47.687Z,32.10
2023-12-03T09:09:17.227Z,33.00
2023-12-03T09:11:46.420Z,32.30
2023-12-03T09:14:15.918Z,38.53
2023-12-03T09:16:45.331Z,37.23
2023-12-03T09:19:14.809Z,32.53
2023-12-03T09:21:45.494Z,32.93
2023-12-03T09:24:15.217Z,31.20
2023-12-03T09:26:46.007Z,34.83
2023-12-03T09:29:16.107Z,36.77
2023-12-03T09:31:45.458Z,28.27
2023-12-03T09:34:14.592Z,30.53
2023-12-03T09:36:45.453Z,30.73
2023-12-03T09:39:13.759Z,30.57
2023-12-03T09:41:49.543Z,31.53
2023-12-03T09:44:23.223Z,29.53
2023-12-03T09:46:53.347Z,28.73
2023-12-03T09:49:25.314Z,31.60
2023-12-03T09:51:57.003Z,31.73
2023-12-03T09:54:26.715Z,37.07
2023-12-03T09:57:02.241Z,37.20
2023-12-03T09:59:34.129Z,37.83
2023-12-03T10:02:04.842Z,32.70
2023-12-03T10:04:34.185Z,37.93
2023-12-03T10:07:05.221Z,32.13
2023-12-03T10:09:35.246Z,30.07
2023-12-03T10:12:07.997Z,33.57
2023-12-03T10:14:38.616Z,29.93
2023-12-03T10:17:08.179Z,30.27
2023-12-03T10:19:37.775Z,30.27
2023-12-03T10:22:08.833Z,29.47
2023-12-03T10:24:49.544Z,27.87
2023-12-03T10:27:19.122Z,34.97
2023-12-03T10:29:49.308Z,27.47
2023-12-03T10:32:19.609Z,30.33
2023-12-03T10:34:52.525Z,31.77
2023-12-03T10:37:23.785Z,31.17
2023-12-03T10:39:53.192Z,30.67
2023-12-03T10:42:22.341Z,27.40
2023-12-03T10:44:51.522Z,28.03
2023-12-03T10:47:21.456Z,27.07
2023-12-03T10:49:52.109Z,29.93
2023-12-03T10:52:23.398Z,27.10
2023-12-03T10:54:53.185Z,28.90
2023-12-03T10:57:22.708Z,29.30
2023-12-03T10:59:56.811Z,28.40
2023-12-03T11:02:29.882Z,27.27
2023-12-03T11:05:04.419Z,26.17
2023-12-03T11:07:36.206Z,28.07
2023-12-03T11:10:07.183Z,26.33
2023-12-03T11:12:36.615Z,24.73
2023-12-03T11:15:07.753Z,30.90
2023-12-03T11:17:42.291Z,27.50
2023-12-03T11:20:15.509Z,27.17
2023-12-03T11:23:01.297Z,27.27
2023-12-03T11:25:35.941Z,25.10
2023-12-03T11:28:05.741Z,33.13
2023-12-03T11:30:41.146Z,27.63
2023-12-03T11:33:12.793Z,27.73
2023-12-03T11:35:43.806Z,33.73
2023-12-03T11:38:31.998Z,33.07
2023-12-03T11:41:01.190Z,29.60
2023-12-03T11:43:31.933Z,30.97
2023-12-03T11:46:01.536Z,32.07
2023-12-03T11:48:32.165Z,33.50
2023-12-03T11:51:01.707Z,31.37
2023-12-03T11:53:40.604Z,30.30
2023-12-03T11:56:11.140Z,30.90
2023-12-03T11:58:40.467Z,31.40
2023-12-03T12:01:11.140Z,33.37
2023-12-03T12:03:40.643Z,31.43
2023-12-03T12:06:10.762Z,32.70
2023-12-03T12:08:41.662Z,31.87
2023-12-03T12:11:11.026Z,33.77
2023-12-03T12:13:40.493Z,31.73
2023-12-03T12:16:11.830Z,30.50
2023-12-03T12:18:41.291Z,31.90
2023-12-03T12:21:12.371Z,34.27
2023-12-03T12:23:46.524Z,30.67
2023-12-03T12:26:16.704Z,33.37
2023-12-03T12:28:46.196Z,36.30
2023-12-03T12:31:19.130Z,32.20
2023-12-03T12:33:49.221Z,32.97
2023-12-03T12:36:18.942Z,36.27
2023-12-03T12:38:50.423Z,34.97
2023-12-03T12:41:21.205Z,36.33
2023-12-03T12:43:57.716Z,31.80
2023-12-03T12:46:27.041Z,33.90
2023-12-03T12:49:15.509Z,34.87
2023-12-03T12:51:45.130Z,39.50
2023-12-03T12:54:17.499Z,35.93
2023-12-03T12:56:47.900Z,39.60
2023-12-03T12:59:19.954Z,35.23
2023-12-03T13:01:51.647Z,37.47
2023-12-03T13:04:24.813Z,37.73
2023-12-03T13:06:57.187Z,41.37
2023-12-03T13:09:31.895Z,37.33
2023-12-03T13:12:03.315Z,32.47
2023-12-03T13:14:37.258Z,28.83
2023-12-03T13:17:07.580Z,22.73
2023-12-03T13:19:38.638Z,21.30
2023-12-03T13:22:09.243Z,18.57
2023-12-03T13:24:42.546Z,17.87
2023-12-03T13:27:13.921Z,14.70
2023-12-03T13:29:44.387Z,15.60
2023-12-03T13:32:14.337Z,13.90
2023-12-03T13:34:44.083Z,13.37
2023-12-03T13:37:13.388Z,11.63
2023-12-03T13:39:44.135Z,12.10
2023-12-03T13:42:13.368Z,10.50
2023-12-03T13:44:42.575Z,13.33
2023-12-03T13:47:12.368Z,12.07
2023-12-03T13:49:43.078Z,11.73
2023-12-03T13:52:12.819Z,10.73
2023-12-03T13:54:43.867Z,9.80
2023-12-03T13:57:13.105Z,9.97
2023-12-03T13:59:43.226Z,10.20
2023-12-03T14:02:15.536Z,9.53
2023-12-03T14:04:48.114Z,9.57
2023-12-03T14:07:17.771Z,8.90
2023-12-03T14:09:48.445Z,10.37
2023-12-03T14:12:17.737Z,9.37
2023-12-03T14:14:47.217Z,9.57
2023-12-03T14:17:16.711Z,10.70
2023-12-03T14:19:46.078Z,8.47
2023-12-03T14:22:15.382Z,10.17
2023-12-03T14:24:45.784Z,13.33
2023-12-03T14:27:16.565Z,9.83
2023-12-03T14:29:45.842Z,9.53
2023-12-03T14:32:14.995Z,8.97
2023-12-03T14:34:44.259Z,9.67
2023-12-03T14:37:14.153Z,10.63
2023-12-03T14:39:43.928Z,10.43
2023-12-03T14:42:13.211Z,10.17
2023-12-03T14:44:45.692Z,11.57
2023-12-03T14:47:15.301Z,10.80
2023-12-03T14:49:44.789Z,11.77
2023-12-03T14:52:13.953Z,12.20
2023-12-03T14:54:44.526Z,14.10
2023-12-03T14:57:14.183Z,19.30
2023-12-03T14:59:45.204Z,15.37
2023-12-03T15:02:14.728Z,12.43
2023-12-03T15:04:45.164Z,14.37
2023-12-03T15:07:15.472Z,12.00
2023-12-03T15:09:45.904Z,12.30
2023-12-03T15:12:15.614Z,13.43
2023-12-03T15:14:46.929Z,12.90
2023-12-03T15:17:17.290Z,13.60
2023-12-03T15:19:46.695Z,14.17
2023-12-03T15:22:16.731Z,13.93
2023-12-03T15:24:48.808Z,16.33
2023-12-03T15:27:18.358Z,14.80
2023-12-03T15:29:49.495Z,16.07
2023-12-03T15:32:19.363Z,15.40
2023-12-03T15:34:48.965Z,17.17
2023-12-03T15:37:18.622Z,18.00
2023-12-03T15:39:47.738Z,18.70
2023-12-03T15:42:16.904Z,16.60
2023-12-03T15:44:46.249Z,18.47
2023-12-03T15:47:16.911Z,16.20
2023-12-03T15:49:48.332Z,18.87
2023-12-03T15:52:19.481Z,18.13
2023-12-03T15:54:50.106Z,16.90
2023-12-03T15:57:21.460Z,17.73
2023-12-03T15:59:50.854Z,14.30
2023-12-03T16:02:21.727Z,17.73
2023-12-03T16:04:51.787Z,14.77
2023-12-03T16:07:21.760Z,14.83
2023-12-03T16:09:51.358Z,16.37
2023-12-03T16:12:21.026Z,15.93
2023-12-03T16:14:50.704Z,16.97
2023-12-03T16:17:27.716Z,16.50
2023-12-03T16:20:04.174Z,17.50
2023-12-03T16:22:33.731Z,20.60
2023-12-03T16:25:03.821Z,19.80
2023-12-03T16:27:33.978Z,19.43
2023-12-03T16:30:03.711Z,19.77
2023-12-03T16:32:35.167Z,20.20
2023-12-03T16:35:06.197Z,19.77
2023-12-03T16:37:36.132Z,18.37
2023-12-03T16:40:06.086Z,18.80
2023-12-03T16:42:35.712Z,19.93
2023-12-03T16:45:05.507Z,17.60
2023-12-03T16:47:36.406Z,20.33
2023-12-03T16:50:06.110Z,19.27
2023-12-03T16:52:35.838Z,18.77
2023-12-03T16:55:05.875Z,20.10
2023-12-03T16:57:35.636Z,19.23
2023-12-03T17:00:06.287Z,16.43
2023-12-03T17:02:37.445Z,20.00
2023-12-03T17:05:07.872Z,20.00
2023-12-03T17:07:37.853Z,20.83
2023-12-03T17:10:08.315Z,17.20
2023-12-03T17:12:44.736Z,20.47
2023-12-03T17:15:21.342Z,18.10
2023-12-03T17:17:53.704Z,19.47
2023-12-03T17:20:24.197Z,19.27
2023-12-03T17:22:58.811Z,17.57
2023-12-03T17:25:31.366Z,17.63
2023-12-03T17:28:03.266Z,20.03
2023-12-03T17:30:35.359Z,17.97
2023-12-03T17:33:09.582Z,17.00
2023-12-03T17:35:40.714Z,18.53
2023-12-03T17:38:12.504Z,19.87
2023-12-03T17:40:43.442Z,20.57
2023-12-03T17:43:15.088Z,21.35
2023-12-03T17:45:46.852Z,19.03
2023-12-03T17:48:20.819Z,20.43
2023-12-03T17:51:05.566Z,19.63
2023-12-03T17:53:39.633Z,21.33
2023-12-03T17:56:14.077Z,19.83
2023-12-03T17:58:46.555Z,17.43
2023-12-03T18:01:21.842Z,18.03
2023-12-03T18:03:56.841Z,17.03
2023-12-03T18:06:33.656Z,16.80
2023-12-03T18:09:08.702Z,17.63
2023-12-03T18:11:44.716Z,17.03
2023-12-03T18:14:17.806Z,19.60
2023-12-03T18:16:52.244Z,16.87
2023-12-03T18:19:27.534Z,18.03
2023-12-03T18:21:59.749Z,18.17
2023-12-03T18:24:33.193Z,18.90
2023-12-03T18:27:06.289Z,18.33
2023-12-03T18:29:40.319Z,19.33
2023-12-03T18:32:13.055Z,18.27
2023-12-03T18:34:51.467Z,18.10
2023-12-03T18:37:25.631Z,16.27
2023-12-03T18:39:58.457Z,19.47
2023-12-03T18:42:33.326Z,20.13
2023-12-03T18:45:06.558Z,18.53
2023-12-03T18:47:36.947Z,20.23
2023-12-03T18:50:11.616Z,17.33
2023-12-03T18:52:43.962Z,20.37
2023-12-03T18:55:16.181Z,20.37
2023-12-03T18:57:49.328Z,18.87
2023-12-03T19:00:23.872Z,18.87
2023-12-03T19:02:57.945Z,17.27
2023-12-03T19:05:32.598Z,19.00
2023-12-03T19:08:06.674Z,19.67
2023-12-03T19:10:41.736Z,20.20
2023-12-03T19:13:17.191Z,19.90
2023-12-03T19:15:50.919Z,20.33
2023-12-03T19:18:25.401Z,18.73
2023-12-03T19:21:01.847Z,21.33
2023-12-03T19:23:36.259Z,21.10
2023-12-03T19:26:11.080Z,20.40
2023-12-03T19:28:43.909Z,18.27
2023-12-03T19:31:18.379Z,17.50
2023-12-03T19:33:50.891Z,19.93
2023-12-03T19:36:26.839Z,17.13
2023-12-03T19:39:02.445Z,16.23
2023-12-03T19:41:35.217Z,19.03
2023-12-03T19:44:09.333Z,19.03
2023-12-03T19:46:42.381Z,17.27
2023-12-03T19:49:15.861Z,16.87
2023-12-03T19:51:49.879Z,16.93
2023-12-03T19:54:22.383Z,15.47
2023-12-03T19:56:54.447Z,16.63
2023-12-03T19:59:26.975Z,14.53
2023-12-03T20:01:59.410Z,16.73
2023-12-03T20:04:34.423Z,16.13
2023-12-03T20:07:07.604Z,15.60
2023-12-03T20:09:39.392Z,14.07
2023-12-03T20:12:11.780Z,12.93
2023-12-03T20:14:42.911Z,17.73
2023-12-03T20:17:14.800Z,13.70
2023-12-03T20:19:46.714Z,15.70
2023-12-03T20:22:21.902Z,16.43
2023-12-03T20:24:55.900Z,15.53
2023-12-03T20:27:28.306Z,17.63
2023-12-03T20:30:01.682Z,15.40
2023-12-03T20:32:35.364Z,17.73
2023-12-03T20:35:08.939Z,16.07
2023-12-03T20:37:44.208Z,15.50
2023-12-03T20:40:17.322Z,15.27
2023-12-03T20:42:49.372Z,17.37
2023-12-03T20:45:21.438Z,16.57
2023-12-03T20:47:53.526Z,15.97
2023-12-03T20:50:26.099Z,17.97
2023-12-03T20:53:00.298Z,15.40
2023-12-03T20:55:32.149Z,17.20
2023-12-03T20:58:04.033Z,15.90
2023-12-03T21:00:34.674Z,17.63
2023-12-03T21:03:05.105Z,14.83
2023-12-03T21:05:35.461Z,16.87
2023-12-03T21:08:06.860Z,17.73
2023-12-03T21:10:36.764Z,16.97
2023-12-03T21:13:07.552Z,15.53
2023-12-03T21:15:37.627Z,16.83
2023-12-03T21:18:07.474Z,16.53
2023-12-03T21:20:37.520Z,18.43
2023-12-03T21:23:08.480Z,19.07
2023-12-03T21:25:37.888Z,15.10
2023-12-03T21:28:07.596Z,17.10
2023-12-03T21:30:37.202Z,19.23
2023-12-03T21:33:07.104Z,16.43
2023-12-03T21:35:36.430Z,17.10
2023-12-03T21:38:08.423Z,16.73
2023-12-03T21:40:39.595Z,15.60
2023-12-03T21:43:09.276Z,17.93
2023-12-03T21:45:39.473Z,18.83
2023-12-03T21:48:09.411Z,15.47
2023-12-03T21:50:39.060Z,16.00
2023-12-03T21:53:08.334Z,17.43
2023-12-03T21:55:39.109Z,17.50
2023-12-03T21:58:09.206Z,19.40
2023-12-03T22:00:39.366Z,17.87
2023-12-03T22:03:08.724Z,16.53
2023-12-03T22:05:37.915Z,18.00
2023-12-03T22:08:07.674Z,17.47
2023-12-03T22:10:36.898Z,19.20
2023-12-03T22:13:08.906Z,18.73
2023-12-03T22:15:38.529Z,18.17
2023-12-03T22:18:07.716Z,20.47
2023-12-03T22:20:36.907Z,19.70
2023-12-03T22:23:06.039Z,19.40
2023-12-03T22:25:35.340Z,17.97
2023-12-03T22:28:04.790Z,21.10
2023-12-03T22:30:35.658Z,19.23
2023-12-03T22:33:05.437Z,18.30
2023-12-03T22:35:34.608Z,19.83
2023-12-03T22:38:04.338Z,21.87
2023-12-03T22:40:33.348Z,20.40
2023-12-03T22:43:02.662Z,21.07
2023-12-03T22:45:31.818Z,18.90
2023-12-03T22:48:02.466Z,21.97
2023-12-03T22:50:32.135Z,18.43
2023-12-03T22:53:01.456Z,20.67
2023-12-03T22:55:30.780Z,20.63
2023-12-03T22:58:00.677Z,21.67
2023-12-03T23:00:33.929Z,19.37
2023-12-03T23:03:04.805Z,19.40
2023-12-03T23:05:38.534Z,21.37
2023-12-03T23:08:09.215Z,22.63
2023-12-03T23:10:38.407Z,21.20
2023-12-03T23:13:08.295Z,22.13
2023-12-03T23:15:37.384Z,21.93
2023-12-03T23:18:07.908Z,22.67
2023-12-03T23:20:37.007Z,22.53
2023-12-03T23:23:06.151Z,24.50
2023-12-03T23:25:35.852Z,21.40
2023-12-03T23:28:05.252Z,20.80
2023-12-03T23:30:34.618Z,22.23
2023-12-03T23:33:04.156Z,21.20
2023-12-03T23:35:34.732Z,23.23
2023-12-03T23:38:03.869Z,23.20
2023-12-03T23:40:32.999Z,22.67
2023-12-03T23:43:02.122Z,23.90
2023-12-03T23:45:31.594Z,22.07
2023-12-03T23:48:01.115Z,25.67
2023-12-03T23:50:30.352Z,22.90
2023-12-03T23:53:02.168Z,23.00
2023-12-03T23:55:31.296Z,22.37
2023-12-03T23:58:00.712Z,22.13
